createdAt,value
2022-10-01T00:00:19.090Z,0
2022-10-01T00:01:19.274Z,0
2022-10-01T00:02:19.088Z,0
2022-10-01T00:03:19.154Z,0
2022-10-01T00:04:19.110Z,0
2022-10-01T00:05:19.112Z,0
2022-10-01T00:06:19.099Z,0
2022-10-01T00:07:19.104Z,0
2022-10-01T00:08:19.221Z,0
2022-10-01T00:09:19.101Z,0
2022-10-01T00:10:19.103Z,0
2022-10-01T00:11:19.106Z,0
2022-10-01T00:12:19.101Z,0
2022-10-01T00:13:19.102Z,0
2022-10-01T00:14:19.091Z,0
2022-10-01T00:15:19.105Z,0
2022-10-01T00:16:19.302Z,0
2022-10-01T00:17:19.105Z,0
2022-10-01T00:18:19.106Z,0
2022-10-01T00:19:19.105Z,0
2022-10-01T00:20:19.091Z,0
2022-10-01T00:21:19.104Z,0
2022-10-01T00:22:19.099Z,0
2022-10-01T00:23:19.096Z,0
2022-10-01T00:24:19.096Z,0
2022-10-01T00:25:19.112Z,0
2022-10-01T00:26:19.115Z,0
2022-10-01T00:27:19.081Z,0
2022-10-01T00:28:19.257Z,0
2022-10-01T00:29:19.195Z,0
2022-10-01T00:30:19.742Z,0
2022-10-01T00:31:19.812Z,0
2022-10-01T00:32:19.884Z,0
2022-10-01T00:33:19.496Z,0
2022-10-01T00:34:19.090Z,0
2022-10-01T00:35:19.932Z,0
2022-10-01T00:36:19.101Z,0
2022-10-01T00:37:19.094Z,0
2022-10-01T00:38:19.107Z,0
2022-10-01T00:39:19.092Z,0
2022-10-01T00:40:19.127Z,0
2022-10-01T00:41:19.100Z,0
2022-10-01T00:42:19.085Z,0
2022-10-01T00:43:19.092Z,0
2022-10-01T00:44:19.082Z,0
2022-10-01T00:45:19.111Z,0
2022-10-01T00:46:19.164Z,0
2022-10-01T00:47:19.097Z,0
2022-10-01T00:48:19.099Z,0
2022-10-01T00:49:19.125Z,0
2022-10-01T00:50:19.102Z,0
2022-10-01T00:51:19.095Z,0
2022-10-01T00:52:19.199Z,0
2022-10-01T00:53:19.099Z,0
2022-10-01T00:54:19.098Z,0
2022-10-01T00:55:19.125Z,0
2022-10-01T00:56:19.098Z,0
2022-10-01T00:57:19.114Z,0
2022-10-01T00:58:19.095Z,0
2022-10-01T00:59:19.099Z,0
2022-10-01T01:00:19.123Z,0
2022-10-01T01:01:19.123Z,0
2022-10-01T01:02:19.181Z,0
2022-10-01T01:03:19.099Z,0
2022-10-01T01:04:19.102Z,0
2022-10-01T01:05:19.094Z,0
2022-10-01T01:06:19.088Z,0
2022-10-01T01:07:19.087Z,0
2022-10-01T01:08:19.095Z,0
2022-10-01T01:09:19.091Z,0
2022-10-01T01:10:19.957Z,0
2022-10-01T01:11:19.120Z,0
2022-10-01T01:12:19.095Z,0
2022-10-01T01:13:19.132Z,0
2022-10-01T01:14:19.110Z,0
2022-10-01T01:15:19.080Z,0
2022-10-01T01:16:19.120Z,0
2022-10-01T01:17:19.103Z,0
2022-10-01T01:18:19.089Z,0
2022-10-01T01:19:19.092Z,0
2022-10-01T01:20:19.093Z,0
2022-10-01T01:21:19.090Z,0
2022-10-01T01:22:19.105Z,0
2022-10-01T01:23:19.091Z,0
2022-10-01T01:24:19.119Z,0
2022-10-01T01:25:19.089Z,0
2022-10-01T01:26:19.072Z,0
2022-10-01T01:27:19.096Z,0
2022-10-01T01:28:19.215Z,0
2022-10-01T01:29:19.074Z,0
2022-10-01T01:30:19.259Z,0
2022-10-01T01:31:19.166Z,0
2022-10-01T01:32:19.373Z,0
2022-10-01T01:33:19.090Z,0
2022-10-01T01:34:19.098Z,0
2022-10-01T01:35:19.129Z,0
2022-10-01T01:36:19.100Z,0
2022-10-01T01:37:19.086Z,0
2022-10-01T01:38:19.092Z,0
2022-10-01T01:39:19.080Z,0
2022-10-01T01:40:19.095Z,0
2022-10-01T01:41:19.097Z,0
2022-10-01T01:42:19.097Z,0
2022-10-01T01:43:19.077Z,0
2022-10-01T01:44:19.174Z,0
2022-10-01T01:45:19.355Z,0
2022-10-01T01:46:19.214Z,0
2022-10-01T01:47:19.071Z,0
2022-10-01T01:48:19.072Z,0
2022-10-01T01:49:19.358Z,0
2022-10-01T01:50:19.443Z,0
2022-10-01T01:51:19.804Z,0
2022-10-01T01:52:19.095Z,0
2022-10-01T01:53:19.331Z,0
2022-10-01T01:54:19.550Z,0
2022-10-01T01:55:19.444Z,0
2022-10-01T01:56:19.297Z,0
2022-10-01T01:57:19.201Z,0
2022-10-01T01:58:19.139Z,0
2022-10-01T01:59:19.065Z,0
2022-10-01T02:00:19.134Z,0
2022-10-01T02:01:19.109Z,0
2022-10-01T02:02:19.293Z,0
2022-10-01T02:03:19.075Z,0
2022-10-01T02:04:19.226Z,0
2022-10-01T02:05:19.509Z,0
2022-10-01T02:06:19.212Z,0
2022-10-01T02:07:20.136Z,0
2022-10-01T02:08:19.069Z,0
2022-10-01T02:09:19.322Z,0
2022-10-01T02:10:19.508Z,0
2022-10-01T02:11:19.144Z,0
2022-10-01T02:12:19.345Z,0
2022-10-01T02:13:19.150Z,0
2022-10-01T02:14:19.422Z,0
2022-10-01T02:15:19.452Z,0
2022-10-01T02:16:19.356Z,0
2022-10-01T02:17:19.384Z,0
2022-10-01T02:18:19.094Z,0
2022-10-01T02:19:19.124Z,0
2022-10-01T02:20:19.090Z,0
2022-10-01T02:21:19.096Z,0
2022-10-01T02:22:19.101Z,0
2022-10-01T02:23:19.107Z,0
2022-10-01T02:24:19.118Z,0
2022-10-01T02:25:19.108Z,0
2022-10-01T02:26:19.109Z,0
2022-10-01T02:27:19.100Z,0
2022-10-01T02:28:19.505Z,0
2022-10-01T02:29:19.184Z,0
2022-10-01T02:30:19.098Z,0
2022-10-01T02:31:19.227Z,0
2022-10-01T02:32:19.376Z,0
2022-10-01T02:33:19.126Z,0
2022-10-01T02:34:20.331Z,0
2022-10-01T02:35:19.096Z,0
2022-10-01T02:36:19.079Z,0
2022-10-01T02:37:19.112Z,0
2022-10-01T02:38:19.230Z,0
2022-10-01T02:39:19.097Z,0
2022-10-01T02:40:19.107Z,0
2022-10-01T02:41:19.110Z,0
2022-10-01T02:42:19.096Z,0
2022-10-01T02:43:19.111Z,0
2022-10-01T02:44:19.135Z,0
2022-10-01T02:45:19.092Z,0
2022-10-01T02:46:19.162Z,0
2022-10-01T02:47:19.108Z,0
2022-10-01T02:48:19.107Z,0
2022-10-01T02:49:19.117Z,0
2022-10-01T02:50:19.111Z,0
2022-10-01T02:51:19.104Z,0
2022-10-01T02:52:19.106Z,0
2022-10-01T02:53:19.091Z,0
2022-10-01T02:54:19.078Z,0
2022-10-01T02:55:19.126Z,0
2022-10-01T02:56:19.106Z,0
2022-10-01T02:57:19.093Z,0
2022-10-01T02:58:19.103Z,0
2022-10-01T02:59:19.112Z,0
2022-10-01T03:00:19.115Z,0
2022-10-01T03:01:19.262Z,0
2022-10-01T03:02:19.183Z,0
2022-10-01T03:03:19.137Z,0
2022-10-01T03:04:19.108Z,0
2022-10-01T03:05:19.086Z,0
2022-10-01T03:06:19.103Z,0
2022-10-01T03:07:19.092Z,0
2022-10-01T03:08:19.123Z,0
2022-10-01T03:09:19.111Z,0
2022-10-01T03:10:19.208Z,0
2022-10-01T03:11:19.102Z,0
2022-10-01T03:12:19.100Z,0
2022-10-01T03:13:19.129Z,0
2022-10-01T03:14:19.106Z,0
2022-10-01T03:15:19.120Z,0
2022-10-01T03:16:19.148Z,0
2022-10-01T03:17:19.096Z,0
2022-10-01T03:18:19.132Z,0
2022-10-01T03:19:19.139Z,0
2022-10-01T03:20:19.095Z,0
2022-10-01T03:21:19.113Z,0
2022-10-01T03:22:19.092Z,0
2022-10-01T03:23:19.092Z,0
2022-10-01T03:24:19.127Z,0
2022-10-01T03:25:19.095Z,0
2022-10-01T03:26:19.101Z,0
2022-10-01T03:27:19.093Z,0
2022-10-01T03:28:19.104Z,0
2022-10-01T03:29:19.123Z,0
2022-10-01T03:30:19.092Z,0
2022-10-01T03:31:19.119Z,0
2022-10-01T03:32:19.112Z,0
2022-10-01T03:33:19.318Z,0
2022-10-01T03:34:19.152Z,0
2022-10-01T03:35:19.107Z,0
2022-10-01T03:36:19.098Z,0
2022-10-01T03:37:19.102Z,0
2022-10-01T03:38:19.094Z,0
2022-10-01T03:39:19.130Z,0
2022-10-01T03:40:19.163Z,0
2022-10-01T03:41:19.082Z,0
2022-10-01T03:42:19.301Z,0
2022-10-01T03:43:19.555Z,0
2022-10-01T03:44:19.554Z,0
2022-10-01T03:45:19.756Z,0
2022-10-01T03:46:19.893Z,0
2022-10-01T03:47:19.537Z,0
2022-10-01T03:48:19.092Z,0
2022-10-01T03:49:19.100Z,0
2022-10-01T03:50:19.321Z,0
2022-10-01T03:51:19.924Z,0
2022-10-01T03:52:19.095Z,0
2022-10-01T03:53:19.110Z,0
2022-10-01T03:54:19.277Z,0
2022-10-01T03:55:19.118Z,0
2022-10-01T03:56:19.085Z,0
2022-10-01T03:57:19.111Z,0
2022-10-01T03:58:19.101Z,0
2022-10-01T03:59:19.095Z,0
2022-10-01T04:00:19.100Z,0
2022-10-01T04:01:19.139Z,0
2022-10-01T04:02:19.195Z,0
2022-10-01T04:03:19.120Z,0
2022-10-01T04:04:19.104Z,0
2022-10-01T04:05:19.366Z,0
2022-10-01T04:06:19.118Z,0
2022-10-01T04:07:19.094Z,0
2022-10-01T04:08:23.526Z,0
2022-10-01T04:09:19.090Z,0
2022-10-01T04:10:19.094Z,0
2022-10-01T04:11:19.094Z,0
2022-10-01T04:12:19.097Z,0
2022-10-01T04:13:19.105Z,0
2022-10-01T04:14:19.082Z,0
2022-10-01T04:15:19.108Z,0
2022-10-01T04:16:19.168Z,0
2022-10-01T04:17:19.233Z,0
2022-10-01T04:18:19.074Z,0
2022-10-01T04:19:19.102Z,0
2022-10-01T04:20:19.097Z,0
2022-10-01T04:21:19.102Z,0
2022-10-01T04:22:19.094Z,0
2022-10-01T04:23:19.110Z,0
2022-10-01T04:24:19.091Z,0
2022-10-01T04:25:19.093Z,0
2022-10-01T04:26:19.105Z,0
2022-10-01T04:27:19.111Z,0
2022-10-01T04:28:19.166Z,0
2022-10-01T04:29:19.099Z,0
2022-10-01T04:30:19.105Z,0
2022-10-01T04:31:19.148Z,0
2022-10-01T04:32:19.096Z,0
2022-10-01T04:33:19.096Z,0
2022-10-01T04:34:19.105Z,0
2022-10-01T04:35:19.116Z,0
2022-10-01T04:36:19.095Z,0
2022-10-01T04:37:19.097Z,0
2022-10-01T04:38:19.089Z,0
2022-10-01T04:39:19.079Z,0
2022-10-01T04:40:19.101Z,0
2022-10-01T04:41:19.105Z,0
2022-10-01T04:42:19.077Z,0
2022-10-01T04:43:19.171Z,0
2022-10-01T04:44:19.066Z,0
2022-10-01T04:45:19.221Z,0
2022-10-01T04:46:19.149Z,0
2022-10-01T04:47:19.333Z,0
2022-10-01T04:48:19.119Z,0
2022-10-01T04:49:19.124Z,0
2022-10-01T04:50:19.106Z,0
2022-10-01T04:51:19.077Z,0
2022-10-01T04:52:19.125Z,0
2022-10-01T04:53:19.105Z,0
2022-10-01T04:54:19.227Z,0
2022-10-01T04:55:19.108Z,0
2022-10-01T04:56:19.089Z,0
2022-10-01T04:57:19.151Z,0.23
2022-10-01T04:58:19.389Z,0.23
2022-10-01T04:59:19.615Z,0.23
2022-10-01T05:00:19.680Z,0.23
2022-10-01T05:01:20.089Z,0.46
2022-10-01T05:02:20.464Z,0.46
2022-10-01T05:03:19.455Z,0.46
2022-10-01T05:04:19.108Z,0.46
2022-10-01T05:05:19.103Z,0.69
2022-10-01T05:06:19.098Z,0.69
2022-10-01T05:07:19.111Z,0.69
2022-10-01T05:08:19.133Z,0.69
2022-10-01T05:09:19.088Z,0.92
2022-10-01T05:10:19.156Z,0.92
2022-10-01T05:11:19.075Z,1.38
2022-10-01T05:12:23.768Z,1.84
2022-10-01T05:13:19.100Z,2.76
2022-10-01T05:14:19.080Z,3.45
2022-10-01T05:15:19.142Z,4.37
2022-10-01T05:16:19.127Z,5.98
2022-10-01T05:17:19.165Z,7.82
2022-10-01T05:18:19.395Z,9.43
2022-10-01T05:19:19.164Z,8.97
2022-10-01T05:20:19.285Z,36.67
2022-10-01T05:21:19.449Z,11.67
2022-10-01T05:22:20.063Z,16.67
2022-10-01T05:23:19.086Z,20.83
2022-10-01T05:24:19.325Z,23.33
2022-10-01T05:25:19.513Z,25.83
2022-10-01T05:26:19.090Z,26.67
2022-10-01T05:27:19.312Z,30
2022-10-01T05:28:22.304Z,30.83
2022-10-01T05:29:19.098Z,33.33
2022-10-01T05:30:19.164Z,38.33
2022-10-01T05:31:19.259Z,46.67
2022-10-01T05:32:19.399Z,51.67
2022-10-01T05:33:19.094Z,51.67
2022-10-01T05:34:19.098Z,56.67
2022-10-01T05:35:19.130Z,62.5
2022-10-01T05:36:19.097Z,61.67
2022-10-01T05:37:19.097Z,56.67
2022-10-01T05:38:19.088Z,57.5
2022-10-01T05:39:19.099Z,70
2022-10-01T05:40:19.093Z,80.83
2022-10-01T05:41:19.094Z,92.5
2022-10-01T05:42:19.123Z,115.83
2022-10-01T05:43:19.101Z,128.33
2022-10-01T05:44:19.117Z,118.33
2022-10-01T05:45:19.176Z,111.67
2022-10-01T05:46:19.388Z,101.67
2022-10-01T05:47:19.096Z,105.83
2022-10-01T05:48:19.094Z,107.5
2022-10-01T05:49:19.098Z,111.67
2022-10-01T05:50:19.128Z,114.17
2022-10-01T05:51:19.108Z,114.17
2022-10-01T05:52:19.102Z,118.33
2022-10-01T05:53:19.096Z,115.83
2022-10-01T05:54:19.092Z,105
2022-10-01T05:55:19.128Z,101.67
2022-10-01T05:56:19.090Z,106.67
2022-10-01T05:57:19.092Z,114.17
2022-10-01T05:58:19.099Z,111.67
2022-10-01T05:59:19.093Z,119.17
2022-10-01T06:00:19.133Z,146.67
2022-10-01T06:01:19.088Z,185.83
2022-10-01T06:02:19.186Z,177.5
2022-10-01T06:03:19.131Z,139.17
2022-10-01T06:04:19.098Z,135
2022-10-01T06:05:19.124Z,151.67
2022-10-01T06:06:19.119Z,147.5
2022-10-01T06:07:19.111Z,165
2022-10-01T06:08:19.098Z,182.5
2022-10-01T06:09:19.111Z,175.83
2022-10-01T06:10:19.105Z,175
2022-10-01T06:11:19.135Z,199.17
2022-10-01T06:12:19.892Z,243.33
2022-10-01T06:13:19.097Z,282.5
2022-10-01T06:14:19.111Z,331.67
2022-10-01T06:15:19.101Z,367.5
2022-10-01T06:16:19.167Z,387.5
2022-10-01T06:17:19.143Z,373.33
2022-10-01T06:18:19.099Z,364.17
2022-10-01T06:19:19.097Z,387.5
2022-10-01T06:20:19.118Z,388.33
2022-10-01T06:21:19.127Z,418.33
2022-10-01T06:22:19.105Z,473.33
2022-10-01T06:23:19.088Z,508.33
2022-10-01T06:24:19.091Z,468.33
2022-10-01T06:25:19.107Z,468.33
2022-10-01T06:26:19.133Z,492.5
2022-10-01T06:27:19.095Z,567.5
2022-10-01T06:28:19.180Z,642.5
2022-10-01T06:29:19.163Z,734.17
2022-10-01T06:30:19.112Z,778.33
2022-10-01T06:31:19.189Z,782.5
2022-10-01T06:32:19.096Z,760
2022-10-01T06:33:19.086Z,820.83
2022-10-01T06:34:19.124Z,806.67
2022-10-01T06:35:19.109Z,712.5
2022-10-01T06:36:19.130Z,627.5
2022-10-01T06:37:19.103Z,577.5
2022-10-01T06:38:19.105Z,572.5
2022-10-01T06:39:19.154Z,637.5
2022-10-01T06:40:19.145Z,755.83
2022-10-01T06:41:19.295Z,834.17
2022-10-01T06:42:19.103Z,730
2022-10-01T06:43:19.100Z,751.67
2022-10-01T06:44:19.088Z,860.83
2022-10-01T06:45:19.116Z,1093.33
2022-10-01T06:46:19.155Z,1587.5
2022-10-01T06:47:19.122Z,1665.83
2022-10-01T06:48:19.091Z,1617.5
2022-10-01T06:49:19.098Z,1472.5
2022-10-01T06:50:19.140Z,1434.17
2022-10-01T06:51:19.130Z,1390
2022-10-01T06:52:19.085Z,1327.5
2022-10-01T06:53:19.104Z,1265
2022-10-01T06:54:19.091Z,1285
2022-10-01T06:55:19.091Z,1334.17
2022-10-01T06:56:19.116Z,1555.83
2022-10-01T06:57:19.079Z,1497.5
2022-10-01T06:58:19.198Z,1352.5
2022-10-01T06:59:19.077Z,1330.83
2022-10-01T07:00:19.369Z,1312.5
2022-10-01T07:01:19.189Z,1304.17
2022-10-01T07:02:19.335Z,1257.5
2022-10-01T07:03:19.671Z,1155
2022-10-01T07:04:19.145Z,1295
2022-10-01T07:05:19.413Z,1384.17
2022-10-01T07:06:19.108Z,1335
2022-10-01T07:07:19.106Z,1250.83
2022-10-01T07:08:19.120Z,1203.33
2022-10-01T07:09:19.092Z,1222.5
2022-10-01T07:10:19.121Z,1223.33
2022-10-01T07:11:19.102Z,1267.5
2022-10-01T07:12:19.097Z,1255
2022-10-01T07:13:19.107Z,1340.83
2022-10-01T07:14:19.097Z,1590.83
2022-10-01T07:15:19.307Z,1645.83
2022-10-01T07:16:19.132Z,1833.33
2022-10-01T07:17:19.109Z,1983.33
2022-10-01T07:18:19.098Z,2171.67
2022-10-01T07:19:19.087Z,2247.5
2022-10-01T07:20:19.128Z,1842.5
2022-10-01T07:21:19.098Z,1628.33
2022-10-01T07:22:19.116Z,1487.5
2022-10-01T07:23:19.095Z,1573.33
2022-10-01T07:24:19.108Z,1502.5
2022-10-01T07:25:19.102Z,1310.83
2022-10-01T07:26:19.096Z,1256.67
2022-10-01T07:27:19.093Z,1430.83
2022-10-01T07:28:19.177Z,1429.17
2022-10-01T07:29:19.087Z,1460.83
2022-10-01T07:30:19.095Z,2017.5
2022-10-01T07:31:19.194Z,2688.33
2022-10-01T07:32:19.090Z,2845.83
2022-10-01T07:33:19.097Z,2546.67
2022-10-01T07:34:19.121Z,3415
2022-10-01T07:35:19.094Z,4210
2022-10-01T07:36:19.097Z,5432.5
2022-10-01T07:37:19.111Z,4816.67
2022-10-01T07:38:19.115Z,4256.67
2022-10-01T07:39:19.098Z,5093.33
2022-10-01T07:40:19.102Z,3661.67
2022-10-01T07:41:19.099Z,2825
2022-10-01T07:42:19.098Z,2338.33
2022-10-01T07:43:19.095Z,2877.5
2022-10-01T07:44:19.106Z,4145.83
2022-10-01T07:45:19.088Z,6054.17
2022-10-01T07:46:19.182Z,8755.83
2022-10-01T07:47:19.105Z,9348.33
2022-10-01T07:48:19.119Z,6465.83
2022-10-01T07:49:19.216Z,6009.17
2022-10-01T07:50:19.121Z,4292.5
2022-10-01T07:51:19.405Z,3610
2022-10-01T07:52:19.097Z,3504.17
2022-10-01T07:53:19.103Z,2993.33
2022-10-01T07:54:19.108Z,3327.5
2022-10-01T07:55:19.090Z,4239.17
2022-10-01T07:56:19.212Z,4027.5
2022-10-01T07:57:19.082Z,2920.83
2022-10-01T07:58:19.147Z,2265.83
2022-10-01T07:59:19.166Z,2879.17
2022-10-01T08:00:19.218Z,3713.33
2022-10-01T08:01:19.193Z,3510
2022-10-01T08:02:19.512Z,3392.5
2022-10-01T08:03:19.162Z,3600.83
2022-10-01T08:04:19.068Z,4257.5
2022-10-01T08:05:19.172Z,3673.33
2022-10-01T08:06:25.300Z,3155
2022-10-01T08:07:19.504Z,3222.5
2022-10-01T08:08:19.708Z,2834.17
2022-10-01T08:09:20.079Z,2702.5
2022-10-01T08:10:20.047Z,3155.83
2022-10-01T08:11:19.328Z,3516.67
2022-10-01T08:12:19.102Z,3820
2022-10-01T08:13:19.094Z,4156.67
2022-10-01T08:14:19.112Z,4320
2022-10-01T08:15:19.116Z,4929.17
2022-10-01T08:16:19.139Z,5320.83
2022-10-01T08:17:19.086Z,4614.17
2022-10-01T08:18:19.090Z,5423.33
2022-10-01T08:19:19.120Z,5247.5
2022-10-01T08:20:19.110Z,5420.83
2022-10-01T08:21:19.121Z,4409.17
2022-10-01T08:22:19.119Z,3440
2022-10-01T08:23:19.129Z,3185.83
2022-10-01T08:24:19.080Z,3055.83
2022-10-01T08:25:19.178Z,3135
2022-10-01T08:26:19.066Z,2758.33
2022-10-01T08:27:19.171Z,2471.67
2022-10-01T08:28:19.108Z,2720.83
2022-10-01T08:29:19.065Z,2710
2022-10-01T08:30:19.187Z,2631.67
2022-10-01T08:31:19.563Z,2812.5
2022-10-01T08:32:19.759Z,2026.67
2022-10-01T08:33:19.116Z,2378.33
2022-10-01T08:34:19.283Z,2433.33
2022-10-01T08:35:19.450Z,1840
2022-10-01T08:36:19.166Z,1740
2022-10-01T08:37:19.323Z,1942.5
2022-10-01T08:38:19.463Z,1938.33
2022-10-01T08:39:19.108Z,1524.17
2022-10-01T08:40:19.327Z,1332.5
2022-10-01T08:41:23.097Z,1613.33
2022-10-01T08:42:19.138Z,1887.5
2022-10-01T08:43:19.402Z,2010.83
2022-10-01T08:44:19.308Z,2225
2022-10-01T08:45:19.114Z,2449.17
2022-10-01T08:46:19.165Z,2506.67
2022-10-01T08:47:19.108Z,2245.83
2022-10-01T08:48:19.122Z,2295.83
2022-10-01T08:49:19.111Z,2277.5
2022-10-01T08:50:19.099Z,2378.33
2022-10-01T08:51:19.089Z,2694.17
2022-10-01T08:52:19.093Z,4118.33
2022-10-01T08:53:19.113Z,3291.67
2022-10-01T08:54:19.112Z,4334.17
2022-10-01T08:55:19.079Z,5379.17
2022-10-01T08:56:19.110Z,6585.83
2022-10-01T08:57:19.134Z,7640
2022-10-01T08:58:19.121Z,7572.5
2022-10-01T08:59:19.093Z,8964.17
2022-10-01T09:00:19.214Z,9179.17
2022-10-01T09:01:19.431Z,9819.17
2022-10-01T09:02:19.091Z,6990
2022-10-01T09:03:19.121Z,7252.5
2022-10-01T09:04:19.125Z,8427.5
2022-10-01T09:05:19.116Z,8311.67
2022-10-01T09:06:19.103Z,7053.33
2022-10-01T09:07:19.095Z,6450.83
2022-10-01T09:08:19.114Z,6266.67
2022-10-01T09:09:19.123Z,5665
2022-10-01T09:10:19.178Z,6186.67
2022-10-01T09:11:19.104Z,7349.17
2022-10-01T09:12:19.108Z,8085.83
2022-10-01T09:13:19.102Z,7530
2022-10-01T09:14:19.129Z,7255.83
2022-10-01T09:15:19.102Z,8042.5
2022-10-01T09:16:19.144Z,7025.83
2022-10-01T09:17:19.106Z,5930
2022-10-01T09:18:19.109Z,5160
2022-10-01T09:19:19.348Z,5145
2022-10-01T09:20:19.150Z,4926.67
2022-10-01T09:21:19.102Z,5530
2022-10-01T09:22:19.101Z,6252.5
2022-10-01T09:23:19.111Z,7011.67
2022-10-01T09:24:19.117Z,9265.83
2022-10-01T09:25:19.118Z,10955.83
2022-10-01T09:26:22.416Z,11892.5
2022-10-01T09:27:19.110Z,11225
2022-10-01T09:28:19.136Z,11680
2022-10-01T09:29:19.128Z,13653.33
2022-10-01T09:30:19.095Z,13296.67
2022-10-01T09:31:19.130Z,16785
2022-10-01T09:32:19.098Z,15040.83
2022-10-01T09:33:19.096Z,13503.33
2022-10-01T09:34:19.132Z,14255
2022-10-01T09:35:19.101Z,14121.67
2022-10-01T09:36:19.116Z,16404.17
2022-10-01T09:37:19.079Z,20050
2022-10-01T09:38:19.101Z,12984.17
2022-10-01T09:39:19.106Z,14545.83
2022-10-01T09:40:19.126Z,20624.17
2022-10-01T09:41:19.106Z,11497.5
2022-10-01T09:42:19.112Z,12795
2022-10-01T09:43:19.098Z,16364.17
2022-10-01T09:44:19.191Z,14460.83
2022-10-01T09:45:19.103Z,16679.17
2022-10-01T09:46:19.150Z,14113.33
2022-10-01T09:47:19.104Z,12490.83
2022-10-01T09:48:19.108Z,15055
2022-10-01T09:49:19.122Z,26938.33
2022-10-01T09:50:19.132Z,21905.83
2022-10-01T09:51:19.129Z,20905
2022-10-01T09:52:19.081Z,12456.67
2022-10-01T09:53:19.102Z,10155
2022-10-01T09:54:19.091Z,11556.67
2022-10-01T09:55:19.113Z,21675.83
2022-10-01T09:56:19.086Z,13690.83
2022-10-01T09:57:19.089Z,14498.33
2022-10-01T09:58:19.101Z,15850
2022-10-01T09:59:19.108Z,17666.67
2022-10-01T10:00:19.129Z,15722.5
2022-10-01T10:01:19.091Z,12185
2022-10-01T10:02:19.245Z,11446.67
2022-10-01T10:03:19.234Z,11359.17
2022-10-01T10:04:20.114Z,9801.67
2022-10-01T10:05:19.110Z,8129.17
2022-10-01T10:06:19.110Z,5214.17
2022-10-01T10:07:19.122Z,5096.67
2022-10-01T10:08:19.108Z,4325
2022-10-01T10:09:19.074Z,4482.5
2022-10-01T10:10:22.156Z,5469.17
2022-10-01T10:11:19.069Z,6939.17
2022-10-01T10:12:19.256Z,7060.83
2022-10-01T10:13:19.595Z,7569.17
2022-10-01T10:14:19.827Z,6744.17
2022-10-01T10:15:20.328Z,5694.17
2022-10-01T10:16:19.648Z,6285
2022-10-01T10:17:19.084Z,7842.5
2022-10-01T10:18:23.761Z,8716.67
2022-10-01T10:19:19.134Z,8442.5
2022-10-01T10:20:19.143Z,6861.67
2022-10-01T10:21:19.108Z,5167.5
2022-10-01T10:22:19.108Z,6229.17
2022-10-01T10:23:19.110Z,8933.33
2022-10-01T10:24:19.160Z,9440
2022-10-01T10:25:19.112Z,10616.67
2022-10-01T10:26:19.093Z,12901.67
2022-10-01T10:27:19.087Z,10293.33
2022-10-01T10:28:19.155Z,10878.33
2022-10-01T10:29:19.170Z,9683.33
2022-10-01T10:30:19.123Z,11473.33
2022-10-01T10:31:19.170Z,16309.17
2022-10-01T10:32:19.084Z,14375
2022-10-01T10:33:19.094Z,10445.83
2022-10-01T10:34:19.151Z,13369.17
2022-10-01T10:35:19.097Z,20798.33
2022-10-01T10:36:19.169Z,24981.67
2022-10-01T10:37:19.096Z,10859.17
2022-10-01T10:38:19.093Z,10655
2022-10-01T10:39:19.100Z,11010.83
2022-10-01T10:40:19.112Z,11673.33
2022-10-01T10:41:19.097Z,13472.5
2022-10-01T10:42:19.127Z,13297.5
2022-10-01T10:43:19.114Z,13009.17
2022-10-01T10:44:19.093Z,13187.5
2022-10-01T10:45:19.095Z,12885
2022-10-01T10:46:19.118Z,12558.33
2022-10-01T10:47:19.103Z,11068.33
2022-10-01T10:48:19.328Z,10495.83
2022-10-01T10:49:19.103Z,10138.33
2022-10-01T10:50:19.091Z,10248.33
2022-10-01T10:51:19.098Z,10346.67
2022-10-01T10:52:19.092Z,10879.17
2022-10-01T10:53:19.092Z,10858.33
2022-10-01T10:54:19.092Z,10152.5
2022-10-01T10:55:19.090Z,9153.33
2022-10-01T10:56:19.108Z,8078.33
2022-10-01T10:57:19.091Z,6986.67
2022-10-01T10:58:19.110Z,5928.33
2022-10-01T10:59:19.097Z,5449.17
2022-10-01T11:00:19.101Z,5202.5
2022-10-01T11:01:19.116Z,5046.67
2022-10-01T11:02:19.182Z,5228.33
2022-10-01T11:03:19.091Z,5117.5
2022-10-01T11:04:19.133Z,4995.83
2022-10-01T11:05:19.090Z,5261.67
2022-10-01T11:06:19.092Z,4818.33
2022-10-01T11:07:19.066Z,4338.33
2022-10-01T11:08:19.102Z,5003.33
2022-10-01T11:09:19.395Z,4940.83
2022-10-01T11:10:19.077Z,4658.33
2022-10-01T11:11:19.216Z,5066.67
2022-10-01T11:12:19.205Z,5710.83
2022-10-01T11:13:19.380Z,6770
2022-10-01T11:14:23.402Z,7276.67
2022-10-01T11:15:19.529Z,8520.83
2022-10-01T11:16:19.314Z,9461.67
2022-10-01T11:17:19.404Z,9476.67
2022-10-01T11:18:19.719Z,7903.33
2022-10-01T11:19:19.106Z,7230
2022-10-01T11:20:20.937Z,8496.67
2022-10-01T11:21:19.109Z,10414.17
2022-10-01T11:22:19.105Z,11815.83
2022-10-01T11:23:19.114Z,12090
2022-10-01T11:24:19.106Z,11985
2022-10-01T11:25:19.124Z,12200.83
2022-10-01T11:26:19.096Z,12815.83
2022-10-01T11:27:19.106Z,13922.5
2022-10-01T11:28:19.163Z,14609.17
2022-10-01T11:29:19.094Z,14362.5
2022-10-01T11:30:19.140Z,13635
2022-10-01T11:31:19.454Z,12824.17
2022-10-01T11:32:19.094Z,12640
2022-10-01T11:33:19.088Z,12336.67
2022-10-01T11:34:19.086Z,12464.17
2022-10-01T11:35:19.111Z,11200
2022-10-01T11:36:19.141Z,10660.83
2022-10-01T11:37:19.091Z,10734.17
2022-10-01T11:38:19.189Z,11270.83
2022-10-01T11:39:19.097Z,11615
2022-10-01T11:40:19.198Z,11440
2022-10-01T11:41:19.248Z,11200
2022-10-01T11:42:19.187Z,12097.5
2022-10-01T11:43:19.069Z,12553.33
2022-10-01T11:44:19.256Z,11360
2022-10-01T11:45:19.541Z,10349.17
2022-10-01T11:46:19.220Z,9790
2022-10-01T11:47:19.638Z,9521.67
2022-10-01T11:48:19.708Z,9948.33
2022-10-01T11:49:19.153Z,10295
2022-10-01T11:50:19.199Z,10245.83
2022-10-01T11:51:19.527Z,10046.67
2022-10-01T11:52:19.843Z,10848.33
2022-10-01T11:53:19.588Z,12919.17
2022-10-01T11:54:19.128Z,15945
2022-10-01T11:55:19.127Z,18143.33
2022-10-01T11:56:19.417Z,16990
2022-10-01T11:57:19.071Z,16421.67
2022-10-01T11:58:19.328Z,22235.83
2022-10-01T11:59:19.470Z,21292.5
2022-10-01T12:00:19.187Z,22545.83
2022-10-01T12:01:19.407Z,22864.17
2022-10-01T12:02:19.150Z,25720.83
2022-10-01T12:03:19.115Z,23466.67
2022-10-01T12:04:19.101Z,23542.5
2022-10-01T12:05:19.160Z,24211.67
2022-10-01T12:06:22.062Z,24419.17
2022-10-01T12:07:19.093Z,28114.17
2022-10-01T12:08:19.095Z,28542.5
2022-10-01T12:09:19.098Z,12740
2022-10-01T12:10:19.103Z,27862.5
2022-10-01T12:11:19.106Z,17572.5
2022-10-01T12:12:19.105Z,32746.67
2022-10-01T12:13:19.104Z,35055.83
2022-10-01T12:14:19.101Z,16824.17
2022-10-01T12:15:19.120Z,13174.17
2022-10-01T12:16:19.105Z,13827.5
2022-10-01T12:17:19.084Z,15210
2022-10-01T12:18:19.090Z,12302.5
2022-10-01T12:19:19.091Z,10677.5
2022-10-01T12:20:19.107Z,7356.67
2022-10-01T12:21:19.092Z,5778.33
2022-10-01T12:22:22.405Z,4413.33
2022-10-01T12:23:19.100Z,4886.67
2022-10-01T12:24:19.112Z,5343.33
2022-10-01T12:25:19.105Z,4430
2022-10-01T12:26:19.086Z,4615.83
2022-10-01T12:27:19.329Z,6190
2022-10-01T12:28:19.160Z,7164.17
2022-10-01T12:29:19.101Z,8534.17
2022-10-01T12:30:19.096Z,8759.17
2022-10-01T12:31:19.141Z,8655
2022-10-01T12:32:19.094Z,8297.5
2022-10-01T12:33:19.116Z,7355
2022-10-01T12:34:19.119Z,6236.67
2022-10-01T12:35:19.113Z,6156.67
2022-10-01T12:36:19.097Z,5340.83
2022-10-01T12:37:19.112Z,4243.33
2022-10-01T12:38:19.101Z,3536.67
2022-10-01T12:39:19.121Z,3273.33
2022-10-01T12:40:19.132Z,2809.17
2022-10-01T12:41:19.230Z,2452.5
2022-10-01T12:42:19.116Z,2303.33
2022-10-01T12:43:19.096Z,2074.17
2022-10-01T12:44:19.130Z,1606.67
2022-10-01T12:45:19.120Z,1187.5
2022-10-01T12:46:19.123Z,745
2022-10-01T12:47:19.114Z,364.17
2022-10-01T12:48:19.230Z,408.33
2022-10-01T12:49:19.148Z,852.5
2022-10-01T12:50:19.086Z,925
2022-10-01T12:51:19.086Z,922.5
2022-10-01T12:52:19.102Z,844.17
2022-10-01T12:53:19.094Z,746.67
2022-10-01T12:54:19.121Z,750
2022-10-01T12:55:19.085Z,767.5
2022-10-01T12:56:19.092Z,741.67
2022-10-01T12:57:19.102Z,696.67
2022-10-01T12:58:19.096Z,685
2022-10-01T12:59:19.181Z,693.33
2022-10-01T13:00:19.090Z,736.67
2022-10-01T13:01:19.190Z,766.67
2022-10-01T13:02:19.167Z,744.17
2022-10-01T13:03:19.088Z,714.17
2022-10-01T13:04:19.283Z,739.17
2022-10-01T13:05:19.087Z,760
2022-10-01T13:06:19.097Z,783.33
2022-10-01T13:07:19.092Z,794.17
2022-10-01T13:08:19.109Z,804.17
2022-10-01T13:09:19.133Z,907.5
2022-10-01T13:10:19.095Z,1105
2022-10-01T13:11:19.085Z,1244.17
2022-10-01T13:12:19.093Z,1350